createdAt,value
2018-12-04T00:00:19.710Z,11.53
2018-12-04T00:02:47.717Z,11.27
2018-12-04T00:05:15.690Z,11.20
2018-12-04T00:07:44.548Z,10.40
2018-12-04T00:10:12.496Z,11.70
2018-12-04T00:12:40.460Z,10.20
2018-12-04T00:15:08.428Z,10.00
2018-12-04T00:17:36.381Z,9.97
2018-12-04T00:20:04.936Z,10.07
2018-12-04T00:22:32.911Z,10.63
2018-12-04T00:25:00.885Z,10.57
2018-12-04T00:27:28.837Z,10.30
2018-12-04T00:29:56.808Z,11.10
2018-12-04T00:32:24.774Z,10.13
2018-12-04T00:34:52.744Z,10.90
2018-12-04T00:37:20.714Z,10.07
2018-12-04T00:39:48.678Z,10.40
2018-12-04T00:42:17.669Z,10.17
2018-12-04T00:44:46.523Z,10.97
2018-12-04T00:47:14.500Z,9.70
2018-12-04T00:49:42.585Z,10.57
2018-12-04T00:52:10.540Z,10.37
2018-12-04T00:54:38.499Z,10.57
2018-12-04T00:57:06.465Z,9.83
2018-12-04T00:59:34.440Z,11.27
2018-12-04T01:02:02.477Z,11.00
2018-12-04T01:04:30.521Z,10.93
2018-12-04T01:06:58.537Z,10.53
2018-12-04T01:09:26.559Z,10.57
2018-12-04T01:11:54.525Z,11.53
2018-12-04T01:14:22.501Z,11.10
2018-12-04T01:16:50.448Z,11.33
2018-12-04T01:19:18.856Z,11.60
2018-12-04T01:21:47.185Z,12.17
2018-12-04T01:24:15.161Z,11.07
2018-12-04T01:26:43.096Z,12.90
2018-12-04T01:29:11.102Z,12.67
2018-12-04T01:31:39.102Z,11.70
2018-12-04T01:34:07.068Z,11.87
2018-12-04T01:36:35.033Z,11.93
2018-12-04T01:39:04.685Z,12.03
2018-12-04T01:41:32.640Z,12.63
2018-12-04T01:44:00.623Z,12.97
2018-12-04T01:46:28.585Z,13.47
2018-12-04T01:48:56.556Z,12.77
2018-12-04T01:51:24.512Z,12.90
2018-12-04T01:53:52.478Z,10.93
2018-12-04T01:56:21.412Z,11.37
2018-12-04T01:58:50.272Z,11.63
2018-12-04T02:01:18.264Z,11.73
2018-12-04T02:03:47.073Z,11.30
2018-12-04T02:06:15.237Z,11.50
2018-12-04T02:08:43.297Z,13.60
2018-12-04T02:11:11.249Z,11.13
2018-12-04T02:13:39.225Z,11.13
2018-12-04T02:16:07.187Z,10.90
2018-12-04T02:18:35.149Z,11.40
2018-12-04T02:21:03.120Z,10.37
2018-12-04T02:23:31.141Z,10.63
2018-12-04T02:25:59.156Z,10.23
2018-12-04T02:28:32.528Z,11.07
2018-12-04T02:31:00.497Z,10.50
2018-12-04T02:33:28.466Z,10.63
2018-12-04T02:35:56.428Z,9.80
2018-12-04T02:38:24.472Z,10.93
2018-12-04T02:40:52.597Z,10.63
2018-12-04T02:43:20.565Z,9.83
2018-12-04T02:45:48.504Z,11.27
2018-12-04T02:48:16.619Z,10.43
2018-12-04T02:50:44.591Z,10.27
2018-12-04T02:53:12.564Z,10.20
2018-12-04T02:55:40.520Z,8.97
2018-12-04T02:58:08.481Z,10.53
2018-12-04T03:00:36.422Z,9.47
2018-12-04T03:03:04.416Z,10.37
2018-12-04T03:05:32.376Z,10.63
2018-12-04T03:08:00.344Z,10.17
2018-12-04T03:10:28.288Z,10.97
2018-12-04T03:12:56.510Z,10.83
2018-12-04T03:15:25.105Z,10.73
2018-12-04T03:17:53.073Z,11.03
2018-12-04T03:20:21.026Z,11.50
2018-12-04T03:22:48.997Z,11.40
2018-12-04T03:25:17.605Z,11.67
2018-12-04T03:27:45.567Z,10.13
2018-12-04T03:30:13.632Z,10.73
2018-12-04T03:32:41.598Z,10.23
2018-12-04T03:35:09.573Z,10.07
2018-12-04T03:37:37.562Z,11.03
2018-12-04T03:40:07.324Z,10.30
2018-12-04T03:42:35.292Z,10.37
2018-12-04T03:45:03.646Z,12.03
2018-12-04T03:47:31.632Z,11.53
2018-12-04T03:49:59.640Z,10.37
2018-12-04T03:52:27.994Z,10.80
2018-12-04T03:54:57.030Z,10.77
2018-12-04T03:57:24.992Z,12.37
2018-12-04T03:59:53.064Z,12.30
2018-12-04T04:02:21.050Z,11.57
2018-12-04T04:04:49.017Z,11.37
2018-12-04T04:07:16.988Z,12.17
2018-12-04T04:09:44.956Z,10.77
2018-12-04T04:12:12.898Z,11.20
2018-12-04T04:14:40.850Z,12.10
2018-12-04T04:17:08.820Z,11.13
2018-12-04T04:19:36.765Z,11.30
2018-12-04T04:22:04.723Z,11.93
2018-12-04T04:24:32.665Z,11.20
2018-12-04T04:27:00.645Z,12.10
2018-12-04T04:29:29.293Z,10.30
2018-12-04T04:31:57.260Z,10.73
2018-12-04T04:34:25.221Z,10.23
2018-12-04T04:36:53.184Z,10.53
2018-12-04T04:39:21.161Z,10.17
2018-12-04T04:41:49.129Z,11.03
2018-12-04T04:44:17.145Z,10.83
2018-12-04T04:46:45.216Z,11.37
2018-12-04T04:49:13.232Z,10.70
2018-12-04T04:51:41.211Z,10.80
2018-12-04T04:54:09.390Z,11.13
2018-12-04T04:56:37.386Z,10.50
2018-12-04T04:59:05.356Z,12.87
2018-12-04T05:01:33.449Z,11.17
2018-12-04T05:04:01.991Z,10.33
2018-12-04T05:06:30.621Z,12.00
2018-12-04T05:08:58.794Z,11.13
2018-12-04T05:11:26.924Z,10.70
2018-12-04T05:13:54.901Z,9.97
2018-12-04T05:16:22.940Z,9.37
2018-12-04T05:18:50.990Z,10.17
2018-12-04T05:21:18.937Z,9.33
2018-12-04T05:23:46.913Z,9.50
2018-12-04T05:26:14.848Z,8.23
2018-12-04T05:28:42.802Z,9.73
2018-12-04T05:31:10.760Z,9.37
2018-12-04T05:33:38.718Z,9.10
2018-12-04T05:36:06.668Z,8.83
2018-12-04T05:38:34.609Z,8.60
2018-12-04T05:41:03.005Z,8.03
2018-12-04T05:43:30.959Z,8.30
2018-12-04T05:45:58.916Z,8.37
2018-12-04T05:48:26.915Z,9.33
2018-12-04T05:50:54.860Z,7.50
2018-12-04T05:53:31.045Z,8.93
2018-12-04T05:55:59.019Z,6.73
2018-12-04T05:58:26.996Z,6.30
2018-12-04T06:00:54.936Z,6.83
2018-12-04T06:03:22.888Z,6.63
2018-12-04T06:05:50.862Z,6.40
2018-12-04T06:08:18.936Z,5.67
2018-12-04T06:10:47.048Z,6.00
2018-12-04T06:13:15.018Z,7.30
2018-12-04T06:15:42.982Z,6.70
2018-12-04T06:18:11.669Z,6.17
2018-12-04T06:20:39.802Z,6.57
2018-12-04T06:23:07.744Z,6.00
2018-12-04T06:28:12.755Z,5.60
2018-12-04T06:30:40.707Z,5.97
2018-12-04T06:33:08.657Z,6.60
2018-12-04T06:35:36.788Z,7.00
2018-12-04T06:38:04.943Z,6.80
2018-12-04T06:40:32.977Z,6.63
2018-12-04T06:43:01.071Z,6.90
2018-12-04T06:45:29.081Z,7.43
2018-12-04T06:47:57.049Z,7.50
2018-12-04T06:50:25.035Z,8.10
2018-12-04T06:52:52.997Z,7.30
2018-12-04T06:55:20.956Z,11.50
2018-12-04T06:57:56.033Z,7.63
2018-12-04T07:00:24.304Z,9.23
2018-12-04T07:02:52.472Z,8.30
2018-12-04T07:05:20.441Z,11.37
2018-12-04T07:07:48.452Z,7.23
2018-12-04T07:10:16.427Z,8.90
2018-12-04T07:12:44.408Z,7.80
2018-12-04T07:15:12.360Z,9.33
2018-12-04T07:17:40.465Z,8.77
2018-12-04T07:20:09.161Z,9.03
2018-12-04T07:22:37.113Z,7.93
2018-12-04T07:25:05.752Z,7.20
2018-12-04T07:27:33.776Z,10.60
2018-12-04T07:30:01.751Z,9.23
2018-12-04T07:33:15.623Z,11.63
2018-12-04T07:35:43.577Z,11.67
2018-12-04T07:38:11.686Z,10.07
2018-12-04T07:40:39.762Z,9.03
2018-12-04T07:43:07.729Z,8.17
2018-12-04T07:45:35.684Z,9.13
2018-12-04T07:48:03.773Z,10.87
2018-12-04T07:50:31.758Z,11.00
2018-12-04T07:52:59.719Z,8.83
2018-12-04T07:55:27.739Z,8.77
2018-12-04T07:57:55.688Z,9.20
2018-12-04T08:00:23.640Z,7.83
2018-12-04T08:02:51.599Z,8.53
2018-12-04T08:05:19.930Z,10.10
2018-12-04T08:07:47.878Z,11.13
2018-12-04T08:10:15.830Z,13.07
2018-12-04T08:12:43.800Z,13.00
2018-12-04T08:15:12.868Z,12.30
2018-12-04T08:17:41.369Z,18.83
2018-12-04T08:20:09.409Z,16.57
2018-12-04T08:22:37.385Z,25.10
2018-12-04T08:25:05.549Z,17.30
2018-12-04T08:27:36.013Z,15.97
2018-12-04T08:30:05.482Z,16.87
2018-12-04T08:32:33.430Z,20.73
2018-12-04T08:35:01.396Z,19.23
2018-12-04T08:37:29.363Z,15.13
2018-12-04T08:39:57.385Z,20.47
2018-12-04T08:42:25.361Z,18.93
2018-12-04T08:44:53.371Z,13.77
2018-12-04T08:47:21.335Z,11.87
2018-12-04T08:49:49.304Z,13.00
2018-12-04T08:52:17.278Z,12.83
2018-12-04T08:54:45.827Z,10.30
2018-12-04T08:57:14.684Z,10.23
2018-12-04T08:59:42.634Z,9.07
2018-12-04T09:02:10.579Z,7.77
2018-12-04T09:04:38.527Z,7.73
2018-12-04T09:07:06.634Z,8.10
2018-12-04T09:09:34.690Z,8.30
2018-12-04T09:12:02.648Z,7.00
2018-12-04T09:14:30.621Z,7.03
2018-12-04T09:16:58.601Z,7.47
2018-12-04T09:22:25.668Z,9.57
2018-12-04T09:24:53.765Z,7.17
2018-12-04T09:27:22.181Z,6.47
2018-12-04T09:29:50.327Z,6.03
2018-12-04T09:32:18.497Z,6.40
2018-12-04T09:37:29.804Z,5.43
2018-12-04T09:39:57.793Z,5.60
2018-12-04T09:42:25.789Z,5.13
2018-12-04T09:44:53.752Z,5.27
2018-12-04T09:47:21.732Z,5.30
2018-12-04T09:49:49.756Z,5.27
2018-12-04T09:52:18.170Z,5.27
2018-12-04T09:54:46.806Z,5.60
2018-12-04T09:57:15.620Z,9.33
2018-12-04T09:59:43.662Z,6.73
2018-12-04T10:02:11.611Z,6.53
2018-12-04T10:04:40.641Z,5.77
2018-12-04T10:07:08.778Z,5.43
2018-12-04T10:09:36.756Z,4.70
2018-12-04T10:12:04.740Z,6.20
2018-12-04T10:14:32.755Z,5.33
2018-12-04T10:17:00.755Z,5.57
2018-12-04T10:19:28.839Z,4.47
2018-12-04T10:21:56.855Z,5.40
2018-12-04T10:24:24.872Z,6.30
2018-12-04T10:26:57.796Z,6.23
2018-12-04T10:29:26.176Z,6.43
2018-12-04T10:31:56.174Z,6.80
2018-12-04T10:34:24.177Z,6.37
2018-12-04T10:36:52.129Z,5.83
2018-12-04T10:39:20.115Z,4.80
2018-12-04T10:41:48.107Z,5.47
2018-12-04T10:44:17.352Z,5.00
2018-12-04T10:46:47.144Z,4.80
2018-12-04T10:49:15.696Z,4.20
2018-12-04T10:51:43.651Z,4.60
2018-12-04T10:54:12.622Z,5.30
2018-12-04T10:56:40.577Z,3.77
2018-12-04T10:59:08.554Z,4.17
2018-12-04T11:02:43.183Z,4.50
2018-12-04T11:05:11.169Z,4.50
2018-12-04T11:07:39.151Z,4.90
2018-12-04T11:10:07.116Z,5.40
2018-12-04T11:12:35.076Z,5.47
2018-12-04T11:15:03.081Z,3.27
2018-12-04T11:17:31.054Z,4.97
2018-12-04T11:19:59.017Z,4.97
2018-12-04T11:22:26.985Z,5.10
2018-12-04T11:24:55.033Z,5.27
2018-12-04T11:27:23.002Z,4.80
2018-12-04T11:29:51.004Z,5.03
2018-12-04T11:32:19.491Z,5.43
2018-12-04T11:34:47.526Z,5.93
2018-12-04T11:37:15.806Z,6.73
2018-12-04T11:39:45.758Z,4.87
2018-12-04T11:42:13.790Z,5.33
2018-12-04T11:44:41.886Z,5.90
2018-12-04T11:47:09.820Z,5.83
2018-12-04T11:49:37.818Z,4.63
2018-12-04T11:52:05.784Z,4.10
2018-12-04T11:54:34.488Z,5.03
2018-12-04T11:57:02.657Z,4.90
2018-12-04T11:59:30.674Z,5.03
2018-12-04T12:01:58.814Z,3.60
2018-12-04T12:04:26.882Z,4.27
2018-12-04T12:06:54.864Z,3.80
2018-12-04T12:09:22.831Z,4.60
2018-12-04T12:11:50.800Z,3.90
2018-12-04T12:14:18.788Z,3.80
2018-12-04T12:16:47.417Z,3.93
2018-12-04T12:19:15.409Z,4.73
2018-12-04T12:21:43.997Z,4.70
2018-12-04T12:24:11.962Z,3.50
2018-12-04T12:26:39.916Z,3.23
2018-12-04T12:29:07.861Z,3.33
2018-12-04T12:31:35.819Z,3.30
2018-12-04T12:34:03.787Z,2.97
2018-12-04T12:36:31.777Z,2.50
2018-12-04T12:38:59.744Z,2.97
2018-12-04T12:41:27.685Z,2.57
2018-12-04T12:46:23.585Z,5.03
2018-12-04T12:48:51.568Z,3.73
2018-12-04T12:51:20.149Z,3.17
2018-12-04T12:53:48.886Z,3.10
2018-12-04T12:56:16.845Z,2.83
2018-12-04T12:58:44.845Z,3.00
2018-12-04T13:01:12.895Z,2.77
2018-12-04T13:03:40.847Z,2.67
2018-12-04T13:06:08.836Z,2.70
2018-12-04T13:08:37.825Z,2.30
2018-12-04T13:11:05.822Z,2.53
2018-12-04T13:13:36.835Z,2.10
2018-12-04T13:16:03.779Z,2.20
2018-12-04T13:18:31.768Z,2.20
2018-12-04T13:20:59.744Z,2.23
2018-12-04T13:23:27.692Z,2.13
2018-12-04T13:25:55.653Z,3.23
2018-12-04T13:28:23.619Z,2.30
2018-12-04T13:30:51.958Z,2.53
2018-12-04T13:33:20.108Z,3.23
2018-12-04T13:35:48.132Z,2.03
2018-12-04T13:38:17.716Z,1.80
2018-12-04T13:40:45.736Z,1.90
2018-12-04T13:43:13.773Z,2.27
2018-12-04T13:45:41.806Z,1.93
2018-12-04T13:48:09.785Z,2.40
2018-12-04T13:50:37.776Z,4.10
2018-12-04T13:53:05.743Z,5.47
2018-12-04T13:55:33.911Z,3.10
2018-12-04T13:58:02.054Z,2.40
2018-12-04T14:00:30.165Z,2.50
2018-12-04T14:02:58.215Z,3.57
2018-12-04T14:05:26.275Z,4.87
2018-12-04T14:07:54.672Z,2.27
2018-12-04T14:10:22.918Z,6.50
2018-12-04T14:12:50.983Z,6.30
2018-12-04T14:15:19.641Z,3.33
2018-12-04T14:17:47.693Z,3.57
2018-12-04T14:20:15.842Z,2.97
2018-12-04T14:22:43.894Z,3.10
2018-12-04T14:25:12.044Z,2.77
2018-12-04T14:27:40.031Z,2.70
2018-12-04T14:30:10.645Z,2.43
2018-12-04T14:32:38.734Z,3.60
2018-12-04T14:35:07.021Z,2.67
2018-12-04T14:37:34.988Z,2.47
2018-12-04T14:40:03.169Z,1.70
2018-12-04T14:42:31.200Z,2.33
2018-12-04T14:44:59.380Z,2.97
2018-12-04T14:47:28.071Z,2.63
2018-12-04T14:49:57.140Z,2.73
2018-12-04T14:52:25.947Z,2.00
2018-12-04T14:54:53.924Z,2.80
2018-12-04T14:57:21.907Z,2.77
2018-12-04T14:59:49.965Z,3.90
2018-12-04T15:02:17.976Z,2.83
2018-12-04T15:04:46.855Z,2.80
2018-12-04T15:07:15.084Z,2.27
2018-12-04T15:09:43.146Z,2.07
2018-12-04T15:12:11.234Z,1.50
2018-12-04T15:14:39.206Z,2.70
2018-12-04T15:17:07.293Z,2.30
2018-12-04T15:19:35.283Z,2.57
2018-12-04T15:22:03.331Z,2.83
2018-12-04T15:24:31.363Z,1.97
2018-12-04T15:27:00.499Z,3.10
2018-12-04T15:29:29.033Z,2.80
2018-12-04T15:31:57.620Z,2.60
2018-12-04T15:34:25.716Z,3.27
2018-12-04T15:36:56.636Z,2.60
2018-12-04T15:39:23.852Z,3.17
2018-12-04T15:41:52.005Z,3.83
2018-12-04T15:44:20.182Z,2.87
2018-12-04T15:46:48.276Z,3.13
2018-12-04T15:49:16.395Z,2.63
2018-12-04T15:51:44.366Z,3.53
2018-12-04T15:54:12.380Z,3.50
2018-12-04T15:56:40.427Z,4.17
2018-12-04T15:59:08.394Z,4.70
2018-12-04T16:01:36.429Z,5.40
2018-12-04T16:04:04.416Z,3.50
2018-12-04T16:06:32.484Z,4.43
2018-12-04T16:09:00.852Z,5.47
2018-12-04T16:11:29.226Z,4.90
2018-12-04T16:13:58.214Z,5.97
2018-12-04T16:16:26.346Z,7.10
2018-12-04T16:18:54.583Z,8.43
2018-12-04T16:21:22.581Z,7.70
2018-12-04T16:23:50.675Z,7.50
2018-12-04T16:26:18.699Z,12.23
2018-12-04T16:28:47.188Z,12.30
2018-12-04T16:31:15.776Z,15.17
2018-12-04T16:33:44.385Z,12.20
2018-12-04T16:36:12.753Z,11.83
2018-12-04T16:38:41.334Z,23.90
2018-12-04T16:41:10.141Z,24.20
2018-12-04T16:43:38.748Z,29.50
2018-12-04T16:46:07.017Z,26.47
2018-12-04T16:48:35.539Z,27.70
2018-12-04T16:51:03.809Z,20.03
2018-12-04T16:53:32.992Z,25.73
2018-12-04T16:56:01.675Z,23.23
2018-12-04T16:58:29.779Z,20.87
2018-12-04T17:00:57.861Z,17.10
2018-12-04T17:03:26.163Z,14.43
2018-12-04T17:05:54.186Z,16.60
2018-12-04T17:08:22.155Z,16.03
2018-12-04T17:10:50.271Z,13.57
2018-12-04T17:13:18.365Z,14.27
2018-12-04T17:15:46.448Z,15.40
2018-12-04T17:18:14.500Z,17.83
2018-12-04T17:20:42.599Z,15.57
2018-12-04T17:23:10.688Z,17.13
2018-12-04T17:25:38.687Z,14.57
2018-12-04T17:28:06.835Z,15.57
2018-12-04T17:30:35.733Z,15.43
2018-12-04T17:33:04.896Z,16.77
2018-12-04T17:35:33.914Z,18.37
2018-12-04T17:38:01.988Z,18.90
2018-12-04T17:40:30.151Z,15.73
2018-12-04T17:42:58.187Z,18.60
2018-12-04T17:45:26.321Z,15.43
2018-12-04T17:47:54.329Z,19.17
2018-12-04T17:50:22.279Z,18.60
2018-12-04T17:52:50.248Z,20.10
2018-12-04T17:55:18.257Z,24.40
2018-12-04T17:57:46.245Z,32.97
2018-12-04T18:00:15.374Z,33.00
2018-12-04T18:02:43.361Z,31.70
2018-12-04T18:05:11.415Z,33.87
2018-12-04T18:07:39.368Z,23.30
2018-12-04T18:10:08.144Z,22.73
2018-12-04T18:12:36.594Z,18.93
2018-12-04T18:15:05.722Z,19.13
2018-12-04T18:17:33.751Z,23.13
2018-12-04T18:20:01.759Z,28.20
2018-12-04T18:22:29.769Z,24.77
2018-12-04T18:24:57.830Z,30.63
2018-12-04T18:29:58.908Z,19.70
2018-12-04T18:32:26.893Z,27.63
2018-12-04T18:34:54.928Z,22.83
2018-12-04T18:37:23.085Z,30.37
2018-12-04T18:39:51.196Z,34.50
2018-12-04T18:42:19.374Z,25.63
2018-12-04T18:44:47.439Z,24.90
2018-12-04T18:47:15.499Z,28.83
2018-12-04T18:49:43.848Z,22.33
2018-12-04T18:52:11.817Z,27.97
2018-12-04T18:54:39.815Z,26.87
2018-12-04T18:57:08.702Z,21.00
2018-12-04T18:59:36.711Z,44.90
2018-12-04T19:02:04.834Z,48.17
2018-12-04T19:04:32.823Z,27.53
2018-12-04T19:07:00.821Z,43.77
2018-12-04T19:09:28.787Z,23.47
2018-12-04T19:11:56.816Z,25.10
2018-12-04T19:14:24.819Z,34.20
2018-12-04T19:16:54.424Z,25.90
2018-12-04T19:19:22.647Z,29.83
2018-12-04T19:21:50.614Z,48.07
2018-12-04T19:24:18.643Z,31.40
2018-12-04T19:26:46.617Z,29.07
2018-12-04T19:29:14.571Z,24.53
2018-12-04T19:31:42.686Z,19.90
2018-12-04T19:34:10.747Z,18.83
2018-12-04T19:36:38.763Z,19.60
2018-12-04T19:39:08.288Z,20.43
2018-12-04T19:41:36.277Z,20.57
2018-12-04T19:44:04.328Z,20.40
2018-12-04T19:46:32.344Z,137.83
2018-12-04T19:49:00.292Z,171.13
2018-12-04T19:51:28.312Z,128.87
2018-12-04T19:53:56.405Z,62.43
2018-12-04T19:56:24.505Z,83.97
2018-12-04T19:58:52.495Z,134.67
2018-12-04T20:01:20.466Z,55.60
2018-12-04T20:03:48.567Z,46.17
2018-12-04T20:06:16.609Z,47.00
2018-12-04T20:08:50.235Z,33.00
2018-12-04T20:11:18.339Z,19.07
2018-12-04T20:13:46.661Z,37.67
2018-12-04T20:16:15.541Z,62.90
2018-12-04T20:18:44.965Z,33.60
2018-12-04T20:21:14.870Z,22.47
2018-12-04T20:23:43.240Z,23.20
2018-12-04T20:26:12.697Z,26.47
2018-12-04T20:28:40.728Z,24.23
2018-12-04T20:31:08.843Z,27.77
2018-12-04T20:33:39.348Z,29.30
2018-12-04T20:36:11.105Z,22.53
2018-12-04T20:38:47.338Z,22.97
2018-12-04T20:41:18.904Z,20.40
2018-12-04T20:43:49.771Z,24.17
2018-12-04T20:46:20.191Z,48.47
2018-12-04T20:48:49.727Z,57.80
2018-12-04T20:51:18.730Z,34.90
2018-12-04T20:53:49.429Z,23.97
2018-12-04T20:56:20.668Z,26.23
2018-12-04T20:58:52.808Z,19.17
2018-12-04T21:01:22.857Z,21.40
2018-12-04T21:03:51.386Z,24.47
2018-12-04T21:06:19.597Z,31.47
2018-12-04T21:08:48.042Z,35.33
2018-12-04T21:11:16.328Z,22.53
2018-12-04T21:13:44.316Z,21.77
2018-12-04T21:18:49.311Z,21.47
2018-12-04T21:21:17.263Z,23.10
2018-12-04T21:23:45.951Z,25.93
2018-12-04T21:26:14.973Z,22.33
2018-12-04T21:28:48.943Z,23.87
2018-12-04T21:32:23.091Z,25.87
2018-12-04T21:34:56.789Z,24.27
2018-12-04T21:37:30.300Z,24.63
2018-12-04T21:40:04.455Z,25.77
2018-12-04T21:42:38.031Z,24.60
2018-12-04T21:45:12.076Z,21.13
2018-12-04T21:47:46.589Z,21.03
2018-12-04T21:50:14.593Z,18.70
2018-12-04T21:52:42.868Z,17.83
2018-12-04T21:55:11.077Z,17.43
2018-12-04T21:57:39.172Z,21.23
2018-12-04T22:00:07.300Z,20.87
2018-12-04T22:02:35.436Z,17.37
2018-12-04T22:05:03.424Z,17.53
2018-12-04T22:07:31.474Z,17.63
2018-12-04T22:09:59.440Z,19.17
2018-12-04T22:12:27.365Z,17.30
2018-12-04T22:14:55.323Z,18.57
2018-12-04T22:17:23.289Z,15.70
2018-12-04T22:19:51.248Z,16.37
2018-12-04T22:22:19.215Z,15.37
2018-12-04T22:24:48.133Z,14.60
2018-12-04T22:27:16.101Z,14.77
2018-12-04T22:29:44.254Z,15.33
2018-12-04T22:32:12.327Z,15.93
2018-12-04T22:34:40.280Z,16.10
2018-12-04T22:37:08.256Z,17.13
2018-12-04T22:39:36.308Z,17.33
2018-12-04T22:42:04.349Z,17.23
2018-12-04T22:44:32.330Z,14.90
2018-12-04T22:47:00.260Z,13.80
2018-12-04T22:49:28.277Z,14.77
2018-12-04T22:51:56.213Z,14.50
2018-12-04T22:54:24.182Z,18.47
2018-12-04T22:56:52.108Z,16.03
2018-12-04T22:59:20.117Z,20.17
2018-12-04T23:01:48.094Z,22.50
2018-12-04T23:04:16.081Z,18.83
2018-12-04T23:06:44.292Z,19.77
2018-12-04T23:09:12.542Z,19.13
2018-12-04T23:11:40.497Z,20.50
2018-12-04T23:14:08.475Z,20.53
2018-12-04T23:16:36.507Z,20.30
2018-12-04T23:19:04.522Z,19.63
2018-12-04T23:21:32.535Z,19.63
2018-12-04T23:24:00.590Z,19.50
2018-12-04T23:26:28.664Z,19.30
2018-12-04T23:28:56.647Z,18.67
2018-12-04T23:31:24.595Z,20.23
2018-12-04T23:33:52.545Z,18.17
2018-12-04T23:36:20.501Z,18.60
2018-12-04T23:38:48.461Z,19.17
2018-12-04T23:41:16.410Z,19.67
2018-12-04T23:43:44.944Z,18.43
2018-12-04T23:46:13.538Z,19.30
2018-12-04T23:48:41.646Z,20.67
2018-12-04T23:51:09.596Z,19.53
2018-12-04T23:53:37.572Z,27.47
2018-12-04T23:56:05.535Z,36.50
2018-12-04T23:58:33.521Z,31.87
